Time;durP1;ratioP1;P1;durP2;ratioP2;P2;SDS_P1;SDS_P2;PMS_P1;PMS_P2;Temp;Humidity;BMP_temperature;BMP_pressure;BME280_temperature;BME280_humidity;BME280_pressure;Samples;Min_cycle;Max_cycle;Signal;HPM_P1;HPM_P2
2022/02/10 00:20:18;;;;;;;8.27;3.65;;;8.50;99.90;;;;;;4989738;28;20030;-67
2022/02/10 00:34:09;;;;;;;11.48;2.80;;;8.40;99.90;;;;;;4989907;28;20038;-67
2022/02/10 00:34:18;;;;;;;6.32;2.70;;;8.20;99.90;;;;;;4986769;28;20038;-67
2022/02/10 00:36:53;;;;;;;11.68;2.67;;;8.20;99.90;;;;;;4985852;28;20022;-67
2022/02/10 00:39:46;;;;;;;7.90;3.40;;;8.10;99.90;;;;;;4984984;28;20489;-68
2022/02/10 00:42:12;;;;;;;8.50;3.28;;;8.00;99.90;;;;;;4987129;28;20022;-67
2022/02/10 00:44:38;;;;;;;12.55;4.25;;;8.00;99.90;;;;;;4981684;28;20088;-67
2022/02/10 00:47:04;;;;;;;7.65;3.67;;;8.00;99.90;;;;;;4986738;28;20038;-67
2022/02/10 00:49:29;;;;;;;11.07;3.80;;;7.80;99.90;;;;;;4983834;28;20031;-67
2022/02/10 00:51:56;;;;;;;8.52;3.22;;;7.80;99.90;;;;;;4985387;28;20113;-67
2022/02/10 00:54:26;;;;;;;11.77;3.85;;;7.50;99.90;;;;;;4983410;28;20024;-67
2022/02/10 00:56:53;;;;;;;7.07;2.53;;;7.40;99.90;;;;;;4983295;28;20073;-67
2022/02/10 00:59:44;;;;;;;7.22;3.63;;;7.20;99.90;;;;;;4985596;28;20026;-68
2022/02/10 01:10:36;;;;;;;7.45;2.65;;;6.50;99.90;;;;;;4984911;28;20030;-67
2022/02/10 01:13:23;;;;;;;6.93;2.85;;;6.50;99.90;;;;;;4982297;28;20479;-68
2022/02/10 01:29:39;;;;;;;10.32;3.42;;;5.60;99.90;;;;;;4984465;28;20030;-67
2022/02/10 01:32:06;;;;;;;6.40;2.60;;;5.50;99.90;;;;;;4986573;28;20034;-67
2022/02/10 01:34:35;;;;;;;8.68;2.78;;;5.60;99.90;;;;;;4991584;28;20022;-67
2022/02/10 01:37:00;;;;;;;9.52;2.97;;;5.60;99.90;;;;;;4980411;28;20037;-67
2022/02/10 01:39:31;;;;;;;8.98;3.08;;;5.60;99.90;;;;;;4982166;28;20042;-67
2022/02/10 02:03:40;;;;;;;8.68;2.97;;;6.30;99.90;;;;;;4981206;28;20033;-67
2022/02/10 02:06:11;;;;;;;17.25;5.18;;;6.40;99.90;;;;;;4979994;28;20042;-68
2022/02/10 02:08:39;;;;;;;10.35;2.95;;;6.60;99.90;;;;;;4982970;28;20031;-67
2022/02/10 02:11:05;;;;;;;7.75;3.20;;;6.60;99.90;;;;;;4977448;28;20023;-67
2022/02/10 02:13:32;;;;;;;11.43;3.67;;;6.30;99.90;;;;;;4979860;28;20137;-67
2022/02/10 02:15:58;;;;;;;9.27;3.42;;;6.10;99.90;;;;;;4982007;28;20371;-67
2022/02/10 02:18:25;;;;;;;8.45;3.45;;;5.80;99.90;;;;;;4998096;28;20030;-68
2022/02/10 02:20:53;;;;;;;7.50;3.17;;;5.80;99.90;;;;;;4993495;28;20038;-67
2022/02/10 02:23:21;;;;;;;9.60;3.58;;;5.80;99.90;;;;;;4986163;28;20093;-67
2022/02/10 02:25:50;;;;;;;11.07;3.13;;;6.10;99.90;;;;;;4982890;28;20634;-67
2022/02/10 02:28:16;;;;;;;5.53;2.20;;;6.00;99.90;;;;;;4984414;28;20109;-67
2022/02/10 02:30:52;;;;;;;13.93;3.53;;;5.80;99.90;;;;;;4982562;28;20113;-67
2022/02/10 03:08:24;;;;;;;7.70;3.25;;;6.30;99.90;;;;;;4988066;28;20053;-68
2022/02/10 03:13:26;;;;;;;17.58;2.97;;;6.50;99.90;;;;;;4985733;28;20023;-67
2022/02/10 03:18:55;;;;;;;9.50;3.22;;;6.70;99.90;;;;;;4989200;28;20035;-67
2022/02/10 03:21:48;;;;;;;6.15;2.97;;;6.70;99.90;;;;;;4984935;28;20039;-67
2022/02/10 04:23:33;;;;;;;7.65;3.67;;;5.90;99.90;;;;;;4985490;28;20093;-67
2022/02/10 04:29:13;;;;;;;12.70;3.25;;;5.70;99.90;;;;;;4984198;28;20427;-67
2022/02/10 04:31:54;;;;;;;10.63;3.65;;;5.50;99.90;;;;;;4989663;28;20510;-67
2022/02/10 04:42:58;;;;;;;11.43;4.15;;;4.80;99.90;;;;;;4989712;28;20026;-67
2022/02/10 04:53:10;;;;;;;7.85;3.33;;;4.90;99.90;;;;;;4989843;28;20077;-67
2022/02/10 05:35:15;;;;;;;7.57;3.13;;;5.10;99.90;;;;;;4985112;28;20061;-67
2022/02/10 05:37:44;;;;;;;5.07;2.63;;;5.20;99.90;;;;;;4980357;28;20055;-67
2022/02/10 05:40:16;;;;;;;9.50;4.15;;;5.30;99.90;;;;;;4980194;28;20034;-67
2022/02/10 05:43:16;;;;;;;9.68;3.15;;;5.40;99.90;;;;;;4982888;28;20486;-67
2022/02/10 05:45:38;;;;;;;7.95;2.70;;;5.70;99.90;;;;;;4988949;28;20062;-67
2022/02/10 05:48:31;;;;;;;8.43;3.08;;;5.80;99.90;;;;;;4990551;28;20026;-67
2022/02/10 05:56:09;;;;;;;5.07;2.22;;;6.30;99.90;;;;;;4994808;28;20030;-67
2022/02/10 05:58:39;;;;;;;7.07;2.83;;;6.40;99.90;;;;;;4995865;28;20038;-68
2022/02/10 06:50:59;;;;;;;5.97;1.95;;;6.80;99.90;;;;;;4998542;28;20042;-67
2022/02/10 06:56:18;;;;;;;8.38;2.30;;;6.80;99.90;;;;;;5000241;28;20717;-68
2022/02/10 07:12:44;;;;;;;7.57;2.97;;;6.80;99.90;;;;;;4991179;28;20410;-68
2022/02/10 07:43:14;;;;;;;9.68;3.10;;;6.90;99.90;;;;;;4987208;28;20470;-68
2022/02/10 08:29:29;;;;;;;5.65;2.75;;;7.10;99.90;;;;;;4986270;28;20084;-67
2022/02/10 08:55:05;;;;;;;9.27;4.25;;;7.70;99.90;;;;;;4986619;28;20157;-68
2022/02/10 09:03:16;;;;;;;6.75;2.70;;;7.70;99.90;;;;;;4984280;28;20065;-68
2022/02/10 09:17:04;;;;;;;6.75;2.97;;;8.10;99.90;;;;;;4983328;28;20505;-67
2022/02/10 09:19:45;;;;;;;5.38;2.63;;;8.20;99.90;;;;;;4984254;28;20050;-67
2022/02/10 10:02:09;;;;;;;8.93;2.75;;;8.10;99.90;;;;;;4982067;28;20053;-68
2022/02/10 10:04:41;;;;;;;4.00;1.88;;;8.20;99.90;;;;;;4980929;28;20029;-67
2022/02/10 10:07:36;;;;;;;7.45;2.38;;;8.20;99.90;;;;;;4980469;28;20142;-68
2022/02/10 10:15:48;;;;;;;4.63;2.15;;;8.40;99.90;;;;;;4979266;28;20699;-67
2022/02/10 10:26:51;;;;;;;9.90;2.60;;;8.30;99.90;;;;;;4977884;28;20026;-68
2022/02/10 10:54:13;;;;;;;10.57;4.03;;;7.60;99.90;;;;;;4991070;28;20085;-67
2022/02/10 10:56:44;;;;;;;9.43;4.05;;;7.70;99.90;;;;;;4987377;28;20482;-67
2022/02/10 10:59:30;;;;;;;9.07;3.33;;;7.60;99.90;;;;;;4991475;28;20026;-67
2022/02/10 11:06:33;;;;;;;7.70;2.40;;;7.40;99.90;;;;;;4991006;28;20056;-67
2022/02/10 11:23:12;;;;;;;11.82;5.22;;;7.20;99.90;;;;;;4990544;28;20037;-67
2022/02/10 11:42:29;;;;;;;12.52;4.10;;;7.10;99.90;;;;;;4990470;28;20499;-66
2022/02/10 13:36:12;;;;;;;7.15;3.25;;;7.00;99.90;;;;;;4983080;28;20062;-67
2022/02/10 14:18:49;;;;;;;6.95;2.63;;;8.20;99.90;;;;;;4987858;28;20034;-66
2022/02/10 14:21:20;;;;;;;4.97;1.70;;;8.30;99.90;;;;;;4997259;28;20031;-67
2022/02/10 14:26:30;;;;;;;10.35;3.15;;;8.10;99.90;;;;;;4989166;28;20126;-66
2022/02/10 14:28:56;;;;;;;7.47;2.67;;;8.10;99.90;;;;;;4987921;28;20544;-66
2022/02/10 14:31:21;;;;;;;9.63;3.30;;;8.10;99.90;;;;;;4987801;28;20026;-66
2022/02/10 14:33:49;;;;;;;3.38;1.77;;;8.00;99.90;;;;;;4988906;28;20386;-66
2022/02/10 14:36:40;;;;;;;6.75;2.75;;;7.90;99.90;;;;;;4992518;28;20052;-66
2022/02/10 14:39:21;;;;;;;7.32;2.92;;;7.80;99.90;;;;;;4984311;28;20125;-66
2022/02/10 14:42:12;;;;;;;5.68;2.35;;;7.80;99.90;;;;;;4984924;28;20026;-66
2022/02/10 15:45:56;;;;;;;5.55;2.22;;;7.60;99.90;;;;;;4983239;28;20232;-67
2022/02/10 16:17:03;;;;;;;7.50;2.65;;;7.00;99.90;;;;;;4988854;28;20108;-67
2022/02/10 16:19:31;;;;;;;9.50;3.20;;;7.00;99.90;;;;;;4988316;28;20038;-67
2022/02/10 16:24:30;;;;;;;13.32;3.58;;;6.90;99.90;;;;;;4988895;28;20027;-67
2022/02/10 16:26:58;;;;;;;6.90;3.00;;;6.90;99.90;;;;;;4987735;28;20029;-67
2022/02/10 16:29:26;;;;;;;8.75;2.45;;;6.90;99.90;;;;;;4986559;28;20058;-67
2022/02/10 16:31:52;;;;;;;6.13;2.63;;;6.90;99.90;;;;;;4987262;28;20041;-67
2022/02/10 16:34:18;;;;;;;7.50;2.47;;;6.90;99.90;;;;;;4990612;28;20655;-67
2022/02/10 16:36:45;;;;;;;7.78;2.75;;;6.80;99.90;;;;;;4985156;28;20038;-67
2022/02/10 16:39:15;;;;;;;9.75;3.03;;;6.80;99.90;;;;;;4987311;28;20117;-67
2022/02/10 16:41:40;;;;;;;7.77;3.13;;;6.70;99.90;;;;;;4986653;28;20505;-67
2022/02/10 16:44:06;;;;;;;10.00;2.85;;;6.70;99.90;;;;;;4985786;28;20027;-67
2022/02/10 16:46:33;;;;;;;9.48;2.97;;;6.80;99.90;;;;;;4992389;28;20024;-67
2022/02/10 16:48:58;;;;;;;6.88;3.20;;;6.80;99.90;;;;;;4998879;28;20062;-67
2022/02/10 16:51:26;;;;;;;10.20;3.38;;;6.70;99.90;;;;;;4989513;28;20068;-67
2022/02/10 16:53:58;;;;;;;8.85;2.92;;;6.70;99.90;;;;;;4985520;28;20030;-67
2022/02/10 16:56:33;;;;;;;8.43;3.25;;;6.70;99.90;;;;;;4988378;28;20275;-67
2022/02/10 17:26:06;;;;;;;11.20;3.25;;;6.10;99.90;;;;;;4987984;28;20034;-67
2022/02/10 17:28:34;;;;;;;4.72;2.20;;;6.30;99.90;;;;;;4978149;28;20522;-66
2022/02/10 17:31:26;;;;;;;11.63;4.18;;;6.40;99.90;;;;;;4988802;28;20038;-66
2022/02/10 17:34:13;;;;;;;8.38;2.97;;;6.30;99.90;;;;;;4990661;28;20030;-66
2022/02/10 17:36:51;;;;;;;7.82;2.60;;;6.10;99.90;;;;;;4993916;28;20167;-66
2022/02/10 17:44:52;;;;;;;6.93;3.10;;;6.40;99.90;;;;;;4996609;28;20056;-66
2022/02/10 17:52:59;;;;;;;10.35;3.70;;;6.20;99.90;;;;;;4988918;28;20033;-66
2022/02/10 17:55:25;;;;;;;6.75;3.55;;;;;;;;;;4985931;28;20443;-66
2022/02/10 17:57:51;;;;;;;5.03;2.55;;;6.20;99.90;;;;;;4988791;28;20038;-66
2022/02/10 18:00:17;;;;;;;11.68;3.85;;;6.10;99.90;;;;;;4985715;28;20033;-66
2022/02/10 18:02:45;;;;;;;5.95;2.92;;;6.10;99.90;;;;;;4986237;28;20104;-66
2022/02/10 18:05:26;;;;;;;7.57;2.83;;;6.10;99.90;;;;;;4991386;28;20395;-67
2022/02/10 18:07:52;;;;;;;10.45;4.13;;;6.10;99.90;;;;;;4991324;28;20125;-67
2022/02/10 18:15:34;;;;;;;10.20;3.85;;;6.20;99.90;;;;;;4987767;28;20029;-66
2022/02/10 18:18:09;;;;;;;5.20;2.72;;;6.20;99.90;;;;;;4989254;28;20026;-67
2022/02/10 18:20:40;;;;;;;6.78;2.10;;;6.20;99.90;;;;;;5007322;28;20562;-66
2022/02/10 18:23:17;;;;;;;8.60;3.50;;;6.20;99.90;;;;;;4982075;28;20499;-66
2022/02/10 18:33:27;;;;;;;4.38;1.77;;;6.00;99.90;;;;;;4992192;28;20026;-66
2022/02/10 19:05:35;;;;;;;2.17;1.30;;;5.10;99.90;;;;;;4992736;28;20061;-66
2022/02/10 19:09:37;;;;;;;4.43;1.80;;;5.10;99.90;;;;;;4986185;28;20033;-66
2022/02/10 19:12:13;;;;;;;1.83;0.93;;;5.10;99.90;;;;;;4989155;28;20019;-66
2022/02/10 19:14:38;;;;;;;2.03;1.20;;;5.10;99.90;;;;;;4989808;28;20026;-66
2022/02/10 19:17:05;;;;;;;2.38;1.35;;;5.10;99.90;;;;;;4989699;28;20413;-66
2022/02/10 19:19:31;;;;;;;4.60;1.90;;;5.10;99.90;;;;;;4981591;28;20431;-66
2022/02/10 19:21:57;;;;;;;5.20;2.47;;;5.10;99.90;;;;;;4986698;28;20030;-66
2022/02/10 19:24:22;;;;;;;6.78;1.92;;;5.10;99.90;;;;;;4995845;28;20036;-66
2022/02/10 19:26:50;;;;;;;3.22;1.60;;;5.10;99.90;;;;;;4997955;28;20398;-66
2022/02/10 19:29:20;;;;;;;6.38;2.10;;;5.00;99.90;;;;;;4997799;28;20026;-66
2022/02/10 19:31:47;;;;;;;1.58;1.08;;;5.00;99.90;;;;;;4993784;28;20034;-66
2022/02/10 19:34:13;;;;;;;5.00;2.40;;;5.00;99.90;;;;;;4993034;28;20109;-66
2022/02/10 19:36:39;;;;;;;2.47;1.70;;;5.00;99.90;;;;;;4997402;28;20104;-66
2022/02/10 19:39:05;;;;;;;5.03;2.30;;;5.00;99.90;;;;;;4996865;28;20029;-66
2022/02/10 19:41:35;;;;;;;4.30;1.88;;;;;;;;;;4993824;28;20060;-66
2022/02/10 19:44:02;;;;;;;4.38;1.80;;;5.00;99.90;;;;;;5001140;28;20033;-66
2022/02/10 19:46:28;;;;;;;8.52;2.63;;;5.00;99.90;;;;;;4991354;28;20166;-66
2022/02/10 19:48:55;;;;;;;6.03;1.95;;;5.00;99.90;;;;;;4989159;28;20030;-65
2022/02/10 19:51:20;;;;;;;9.70;3.33;;;4.90;99.90;;;;;;4999519;28;20601;-65
2022/02/10 19:53:48;;;;;;;1.92;1.30;;;4.90;99.90;;;;;;4996381;28;20129;-65
2022/02/10 19:56:14;;;;;;;5.47;2.67;;;4.90;99.90;;;;;;4993456;28;20021;-65
2022/02/10 19:58:40;;;;;;;2.65;1.40;;;4.90;99.90;;;;;;4997500;28;20030;-65
2022/02/10 20:01:06;;;;;;;1.58;1.30;;;4.90;99.90;;;;;;4986842;28;20032;-65
2022/02/10 20:03:34;;;;;;;2.85;1.42;;;4.90;99.90;;;;;;4993573;28;20038;-65
2022/02/10 20:06:03;;;;;;;4.75;1.95;;;4.70;99.90;;;;;;4988498;28;20085;-65
2022/02/10 20:08:28;;;;;;;3.95;1.55;;;4.70;99.90;;;;;;4990373;28;20065;-66
2022/02/10 20:10:55;;;;;;;1.23;1.02;;;4.60;99.90;;;;;;4990574;28;20061;-66
2022/02/10 20:13:26;;;;;;;3.70;1.30;;;4.50;99.90;;;;;;4985017;28;20022;-66
2022/02/10 20:15:52;;;;;;;4.28;1.60;;;4.60;99.90;;;;;;4986657;28;20741;-66
2022/02/10 20:18:22;;;;;;;0.82;0.82;;;4.50;99.90;;;;;;4986376;28;20398;-66
2022/02/10 20:20:53;;;;;;;5.65;1.58;;;4.40;99.90;;;;;;4992979;28;20066;-66
2022/02/10 20:23:23;;;;;;;4.75;1.70;;;4.30;99.90;;;;;;5007630;28;20061;-65
2022/02/10 20:25:49;;;;;;;0.60;0.60;;;4.30;99.90;;;;;;4997396;28;20376;-67
2022/02/10 20:28:17;;;;;;;0.90;0.80;;;4.40;99.90;;;;;;4993538;28;20033;-66
2022/02/10 20:30:43;;;;;;;1.90;1.40;;;4.30;99.90;;;;;;4994518;28;20022;-66
2022/02/10 20:33:08;;;;;;;1.52;1.13;;;4.30;99.90;;;;;;4983172;28;20121;-66
2022/02/10 20:35:40;;;;;;;1.30;0.93;;;4.20;99.90;;;;;;4990525;28;20130;-66
2022/02/10 20:38:08;;;;;;;5.80;2.80;;;4.20;99.90;;;;;;4988163;28;20124;-66
2022/02/10 20:40:35;;;;;;;0.88;0.85;;;4.10;99.90;;;;;;4989079;28;20173;-66
2022/02/10 20:43:05;;;;;;;1.77;1.25;;;4.10;99.90;;;;;;4985604;28;20414;-66
2022/02/10 20:45:33;;;;;;;2.10;1.13;;;4.10;99.90;;;;;;4982804;28;20030;-66
2022/02/10 20:47:59;;;;;;;3.10;1.50;;;4.00;99.90;;;;;;4988105;28;20031;-66
2022/02/10 20:50:24;;;;;;;1.90;1.25;;;4.00;99.90;;;;;;5004169;28;20034;-66
2022/02/10 20:52:50;;;;;;;2.10;1.27;;;4.00;99.90;;;;;;5004220;28;20019;-66
2022/02/10 20:55:16;;;;;;;1.85;1.20;;;4.00;99.90;;;;;;4978886;28;20110;-66
2022/02/10 20:57:41;;;;;;;2.05;1.35;;;3.90;99.90;;;;;;4985062;28;20023;-66
2022/02/10 21:00:12;;;;;;;2.45;1.23;;;3.90;99.90;;;;;;4978093;28;20033;-66
2022/02/10 21:02:42;;;;;;;;;;;3.80;99.90;;;;;;4982465;28;20018;-66
2022/02/10 21:05:26;;;;;;;3.85;1.92;;;3.90;99.90;;;;;;4984625;28;20529;-66
2022/02/10 21:10:38;;;;;;;0.75;0.75;;;3.80;99.90;;;;;;4973993;28;20065;-65
2022/02/10 21:13:05;;;;;;;1.17;1.08;;;3.80;99.90;;;;;;4985905;28;20058;-65
2022/02/10 21:15:41;;;;;;;4.07;1.48;;;3.80;99.90;;;;;;4985159;28;20038;-66
2022/02/10 21:18:07;;;;;;;2.92;1.13;;;3.80;99.90;;;;;;4984944;28;20037;-66
2022/02/10 21:20:35;;;;;;;9.38;1.67;;;3.80;99.90;;;;;;4992158;28;20114;-66
2022/02/10 21:23:27;;;;;;;1.27;1.00;;;3.80;99.90;;;;;;4984807;28;20058;-66
2022/02/10 21:25:48;;;;;;;2.08;1.30;;;3.80;99.90;;;;;;4992565;28;20057;-66
2022/02/10 21:28:21;;;;;;;3.97;1.73;;;3.80;99.90;;;;;;4977619;28;20027;-66
2022/02/10 21:30:51;;;;;;;1.92;1.20;;;3.80;99.90;;;;;;4984157;28;20018;-66
2022/02/10 21:38:28;;;;;;;0.90;0.90;;;3.80;99.90;;;;;;4986514;28;20041;-66
2022/02/10 21:54:32;;;;;;;1.25;1.13;;;3.80;99.90;;;;;;4984677;28;20104;-66
2022/02/10 22:08:07;;;;;;;3.50;1.75;;;3.60;99.90;;;;;;4983321;28;20180;-66
2022/02/10 22:10:21;;;;;;;0.80;0.80;;;3.50;99.90;;;;;;4983870;28;20442;-66
2022/02/10 22:18:38;;;;;;;11.45;1.35;;;3.50;99.90;;;;;;4988725;28;20405;-67
2022/02/10 22:21:06;;;;;;;1.52;1.23;;;3.50;99.90;;;;;;4986415;28;20026;-66
2022/02/10 22:23:35;;;;;;;2.13;1.15;;;3.40;99.90;;;;;;4985287;28;20129;-66
2022/02/10 22:26:05;;;;;;;3.03;1.35;;;3.40;99.90;;;;;;4992613;28;20091;-66
2022/02/10 22:35:51;;;;;;;2.78;1.23;;;3.30;99.90;;;;;;4985908;28;20043;-66
2022/02/10 22:38:21;;;;;;;2.47;1.27;;;3.30;99.90;;;;;;5007050;28;20062;-66
2022/02/10 22:41:03;;;;;;;0.75;0.75;;;3.30;99.90;;;;;;5005804;28;20030;-66
2022/02/10 22:43:29;;;;;;;5.20;2.25;;;3.30;99.90;;;;;;4988921;28;20093;-66
2022/02/10 22:45:54;;;;;;;3.85;1.60;;;3.30;99.90;;;;;;5000480;28;20018;-66
2022/02/10 22:48:20;;;;;;;4.97;1.95;;;3.20;99.90;;;;;;4992284;28;20030;-66
2022/02/10 22:50:45;;;;;;;2.67;1.67;;;3.20;99.90;;;;;;5004621;28;20058;-66
2022/02/10 22:53:11;;;;;;;2.70;1.33;;;3.20;99.90;;;;;;4995894;28;20109;-66
2022/02/10 22:55:38;;;;;;;1.50;1.05;;;3.20;99.90;;;;;;4983941;28;20443;-66
2022/02/10 22:58:03;;;;;;;9.73;1.88;;;3.10;99.90;;;;;;4991625;28;20050;-66
2022/02/10 23:00:33;;;;;;;3.00;1.65;;;3.10;99.90;;;;;;4984310;28;20092;-66
2022/02/10 23:02:59;;;;;;;4.45;1.55;;;3.10;99.90;;;;;;4990899;28;20032;-66
2022/02/10 23:05:25;;;;;;;2.17;1.40;;;2.90;99.90;;;;;;4983067;28;20443;-66
2022/02/10 23:07:56;;;;;;;3.40;1.27;;;2.90;99.90;;;;;;4990868;28;20050;-66
2022/02/10 23:13:04;;;;;;;1.15;1.05;;;3.00;99.90;;;;;;4995102;28;20026;-66
2022/02/10 23:15:35;;;;;;;1.77;1.05;;;3.10;99.90;;;;;;4989462;28;20049;-66
2022/02/10 23:18:04;;;;;;;2.67;1.27;;;3.10;99.90;;;;;;4989880;28;20061;-66
2022/02/10 23:20:29;;;;;;;3.53;1.30;;;3.00;99.90;;;;;;4995523;28;20030;-66
2022/02/10 23:22:55;;;;;;;2.40;1.60;;;3.00;99.90;;;;;;4991023;28;20030;-66
2022/02/10 23:25:23;;;;;;;2.63;1.45;;;3.10;99.90;;;;;;4989709;28;20089;-66
2022/02/10 23:27:49;;;;;;;2.35;1.35;;;3.10;99.90;;;;;;4989050;28;20022;-66
2022/02/10 23:30:17;;;;;;;1.65;1.27;;;3.10;99.90;;;;;;5006026;28;20029;-66
2022/02/10 23:32:43;;;;;;;2.90;1.52;;;3.10;99.90;;;;;;4989066;28;20022;-66
2022/02/10 23:35:23;;;;;;;4.20;1.45;;;3.10;99.90;;;;;;4992605;28;20098;-66
2022/02/10 23:37:49;;;;;;;3.72;2.05;;;3.10;99.90;;;;;;4993875;28;20172;-66
2022/02/10 23:40:15;;;;;;;5.95;1.88;;;3.10;99.90;;;;;;4992928;28;20525;-66
2022/02/10 23:42:40;;;;;;;2.72;1.45;;;3.00;99.90;;;;;;4995818;28;20035;-66
2022/02/10 23:45:15;;;;;;;5.05;1.98;;;3.00;99.90;;;;;;4993803;28;20022;-66
2022/02/10 23:47:41;;;;;;;1.98;1.33;;;3.10;99.90;;;;;;4995744;28;20034;-66
2022/02/10 23:50:07;;;;;;;2.35;1.45;;;3.00;99.90;;;;;;4992265;28;20057;-66
2022/02/10 23:52:32;;;;;;;2.13;1.10;;;3.10;99.90;;;;;;4986951;28;20403;-66
2022/02/10 23:55:05;;;;;;;3.03;1.50;;;3.10;99.90;;;;;;4996130;28;20036;-66
2022/02/10 23:57:46;;;;;;;1.55;1.00;;;3.00;99.90;;;;;;4997204;28;20066;-66
